sensor_id;sensor_type;location;lat;lon;timestamp;pressure;altitude;pressure_sealevel;temperature;humidity
39267;BME280;24967;51.154;13.812;2023-03-17T00:00:13;99706.13;;;5.05;53.60
39267;BME280;24967;51.154;13.812;2023-03-17T00:02:41;99698.16;;;5.18;52.62
39267;BME280;24967;51.154;13.812;2023-03-17T00:05:15;99701.31;;;5.11;53.14
39267;BME280;24967;51.154;13.812;2023-03-17T00:07:42;99702.16;;;5.11;52.64
39267;BME280;24967;51.154;13.812;2023-03-17T00:10:14;99692.66;;;4.97;52.43
39267;BME280;24967;51.154;13.812;2023-03-17T00:12:42;99685.41;;;5.12;52.78
39267;BME280;24967;51.154;13.812;2023-03-17T00:15:10;99682.94;;;4.98;52.75
39267;BME280;24967;51.154;13.812;2023-03-17T00:17:38;99675.56;;;5.03;52.63
39267;BME280;24967;51.154;13.812;2023-03-17T00:20:05;99669.94;;;5.08;51.67
39267;BME280;24967;51.154;13.812;2023-03-17T00:22:35;99672.47;;;4.85;52.84
39267;BME280;24967;51.154;13.812;2023-03-17T00:25:04;99663.75;;;4.96;53.00
39267;BME280;24967;51.154;13.812;2023-03-17T00:27:36;99656.38;;;5.01;52.77
39267;BME280;24967;51.154;13.812;2023-03-17T00:30:03;99655.91;;;5.07;52.08
39267;BME280;24967;51.154;13.812;2023-03-17T00:32:36;99652.50;;;5.18;52.48
39267;BME280;24967;51.154;13.812;2023-03-17T00:35:13;99645.09;;;4.99;52.35
39267;BME280;24967;51.154;13.812;2023-03-17T00:37:40;99637.69;;;5.04;52.31
39267;BME280;24967;51.154;13.812;2023-03-17T00:40:08;99634.41;;;4.89;52.57
39267;BME280;24967;51.154;13.812;2023-03-17T00:42:42;99628.56;;;4.97;52.50
39267;BME280;24967;51.154;13.812;2023-03-17T00:45:09;99634.06;;;4.94;51.93
39267;BME280;24967;51.154;13.812;2023-03-17T00:47:35;99628.69;;;4.95;52.31
39267;BME280;24967;51.154;13.812;2023-03-17T00:50:04;99627.06;;;5.05;52.28
39267;BME280;24967;51.154;13.812;2023-03-17T00:52:31;99635.06;;;5.04;52.06
39267;BME280;24967;51.154;13.812;2023-03-17T00:54:58;99635.66;;;4.96;52.17
39267;BME280;24967;51.154;13.812;2023-03-17T00:57:25;99628.41;;;4.87;52.63
39267;BME280;24967;51.154;13.812;2023-03-17T00:59:53;99631.38;;;4.82;52.66
39267;BME280;24967;51.154;13.812;2023-03-17T01:02:20;99628.69;;;4.95;52.46
39267;BME280;24967;51.154;13.812;2023-03-17T01:04:47;99612.78;;;4.97;52.12
39267;BME280;24967;51.154;13.812;2023-03-17T01:07:13;99614.38;;;4.87;52.39
39267;BME280;24967;51.154;13.812;2023-03-17T01:09:40;99615.63;;;4.70;52.66
39267;BME280;24967;51.154;13.812;2023-03-17T01:12:10;99613.03;;;4.81;51.82
39267;BME280;24967;51.154;13.812;2023-03-17T01:14:38;99611.72;;;4.75;52.51
39267;BME280;24967;51.154;13.812;2023-03-17T01:17:10;99606.34;;;4.40;53.09
39267;BME280;24967;51.154;13.812;2023-03-17T01:19:39;99594.41;;;4.47;52.47
39267;BME280;24967;51.154;13.812;2023-03-17T01:22:06;99590.28;;;4.80;52.54
39267;BME280;24967;51.154;13.812;2023-03-17T01:24:33;99586.59;;;4.82;51.69
39267;BME280;24967;51.154;13.812;2023-03-17T01:26:59;99581.19;;;4.84;51.72
39267;BME280;24967;51.154;13.812;2023-03-17T01:29:26;99583.06;;;4.71;51.99
39267;BME280;24967;51.154;13.812;2023-03-17T01:31:52;99586.38;;;4.86;51.75
39267;BME280;24967;51.154;13.812;2023-03-17T01:34:20;99579.22;;;4.88;51.06
39267;BME280;24967;51.154;13.812;2023-03-17T01:36:47;99579.31;;;4.62;51.65
39267;BME280;24967;51.154;13.812;2023-03-17T01:39:14;99583.41;;;4.66;51.53
39267;BME280;24967;51.154;13.812;2023-03-17T01:41:42;99574.09;;;4.73;51.44
39267;BME280;24967;51.154;13.812;2023-03-17T01:44:14;99573.38;;;4.71;51.63
39267;BME280;24967;51.154;13.812;2023-03-17T01:46:41;99569.34;;;4.78;51.64
39267;BME280;24967;51.154;13.812;2023-03-17T01:49:15;99562.75;;;4.84;51.34
39267;BME280;24967;51.154;13.812;2023-03-17T01:51:55;99562.75;;;4.84;50.72
39267;BME280;24967;51.154;13.812;2023-03-17T01:54:29;99563.78;;;4.94;50.84
39267;BME280;24967;51.154;13.812;2023-03-17T01:57:02;99546.75;;;4.87;51.23
39267;BME280;24967;51.154;13.812;2023-03-17T01:59:33;99546.75;;;4.87;51.63
39267;BME280;24967;51.154;13.812;2023-03-17T02:02:04;99544.69;;;4.79;50.89
39267;BME280;24967;51.154;13.812;2023-03-17T02:04:31;99543.38;;;4.85;51.53
39267;BME280;24967;51.154;13.812;2023-03-17T02:07:00;99549.41;;;4.87;50.92
39267;BME280;24967;51.154;13.812;2023-03-17T02:09:30;99547.38;;;4.91;50.59
39267;BME280;24967;51.154;13.812;2023-03-17T02:11:59;99545.34;;;4.94;51.63
39267;BME280;24967;51.154;13.812;2023-03-17T02:14:26;99541.63;;;4.97;51.11
39267;BME280;24967;51.154;13.812;2023-03-17T02:16:53;99538.44;;;4.80;50.94
39267;BME280;24967;51.154;13.812;2023-03-17T02:19:20;99538.16;;;4.96;51.51
39267;BME280;24967;51.154;13.812;2023-03-17T02:21:49;99530.41;;;5.06;50.83
39267;BME280;24967;51.154;13.812;2023-03-17T02:24:22;99528.72;;;5.05;51.04
39267;BME280;24967;51.154;13.812;2023-03-17T02:26:52;99530.19;;;5.09;50.80
39267;BME280;24967;51.154;13.812;2023-03-17T02:29:19;99525.97;;;5.07;50.65
39267;BME280;24967;51.154;13.812;2023-03-17T02:31:46;99526.38;;;4.89;50.47
39267;BME280;24967;51.154;13.812;2023-03-17T02:34:13;99526.75;;;4.96;51.18
39267;BME280;24967;51.154;13.812;2023-03-17T02:36:40;99519.75;;;4.72;51.01
39267;BME280;24967;51.154;13.812;2023-03-17T02:39:08;99512.78;;;4.71;50.58
39267;BME280;24967;51.154;13.812;2023-03-17T02:41:34;99513.53;;;4.73;51.07
39267;BME280;24967;51.154;13.812;2023-03-17T02:44:01;99510.22;;;4.82;50.42
39267;BME280;24967;51.154;13.812;2023-03-17T02:46:27;99523.06;;;4.98;50.68
39267;BME280;24967;51.154;13.812;2023-03-17T02:48:54;99528.56;;;4.95;50.73
39267;BME280;24967;51.154;13.812;2023-03-17T02:51:22;99530.13;;;4.98;50.07
39267;BME280;24967;51.154;13.812;2023-03-17T02:53:48;99538.91;;;4.74;50.44
39267;BME280;24967;51.154;13.812;2023-03-17T02:56:16;99533.25;;;4.68;50.01
39267;BME280;24967;51.154;13.812;2023-03-17T02:58:43;99533.31;;;4.79;50.32
39267;BME280;24967;51.154;13.812;2023-03-17T03:01:10;99520.34;;;5.00;50.44
39267;BME280;24967;51.154;13.812;2023-03-17T03:03:37;99517.97;;;4.84;50.53
39267;BME280;24967;51.154;13.812;2023-03-17T03:06:04;99508.19;;;4.86;50.16
39267;BME280;24967;51.154;13.812;2023-03-17T03:08:31;99508.03;;;4.76;50.46
39267;BME280;24967;51.154;13.812;2023-03-17T03:10:57;99504.94;;;4.82;50.72
39267;BME280;24967;51.154;13.812;2023-03-17T03:13:28;99505.44;;;4.88;50.10
39267;BME280;24967;51.154;13.812;2023-03-17T03:15:54;99500.31;;;4.97;50.35
39267;BME280;24967;51.154;13.812;2023-03-17T03:18:21;99496.91;;;4.84;50.72
39267;BME280;24967;51.154;13.812;2023-03-17T03:20:48;99504.44;;;5.13;50.50
39267;BME280;24967;51.154;13.812;2023-03-17T03:23:15;99504.38;;;4.90;49.85
39267;BME280;24967;51.154;13.812;2023-03-17T03:25:42;99498.84;;;4.82;50.26
39267;BME280;24967;51.154;13.812;2023-03-17T03:28:08;99503.59;;;4.77;50.42
39267;BME280;24967;51.154;13.812;2023-03-17T03:30:36;99513.56;;;4.85;50.63
39267;BME280;24967;51.154;13.812;2023-03-17T03:33:04;99497.41;;;4.89;49.89
39267;BME280;24967;51.154;13.812;2023-03-17T03:35:32;99520.25;;;4.77;49.63
39267;BME280;24967;51.154;13.812;2023-03-17T03:37:59;99517.84;;;4.74;50.08
39267;BME280;24967;51.154;13.812;2023-03-17T03:40:26;99516.41;;;4.70;50.42
39267;BME280;24967;51.154;13.812;2023-03-17T03:42:52;99519.41;;;4.77;50.13
39267;BME280;24967;51.154;13.812;2023-03-17T03:45:19;99523.75;;;4.54;50.47
39267;BME280;24967;51.154;13.812;2023-03-17T03:47:47;99518.53;;;4.65;50.57
39267;BME280;24967;51.154;13.812;2023-03-17T03:50:13;99516.41;;;4.46;50.17
39267;BME280;24967;51.154;13.812;2023-03-17T03:52:40;99511.47;;;4.42;50.04
39267;BME280;24967;51.154;13.812;2023-03-17T03:55:07;99503.78;;;4.63;50.78
39267;BME280;24967;51.154;13.812;2023-03-17T03:57:34;99502.47;;;4.57;50.63
39267;BME280;24967;51.154;13.812;2023-03-17T04:00:01;99502.09;;;4.62;50.60
39267;BME280;24967;51.154;13.812;2023-03-17T04:02:29;99498.69;;;4.72;50.39
39267;BME280;24967;51.154;13.812;2023-03-17T04:04:57;99512.09;;;4.80;50.07
39267;BME280;24967;51.154;13.812;2023-03-17T04:07:24;99497.22;;;4.68;49.68
39267;BME280;24967;51.154;13.812;2023-03-17T04:09:51;99501.56;;;4.69;50.24
39267;BME280;24967;51.154;13.812;2023-03-17T04:12:17;99496.75;;;4.63;50.17
39267;BME280;24967;51.154;13.812;2023-03-17T04:14:44;99497.00;;;4.71;50.13
39267;BME280;24967;51.154;13.812;2023-03-17T04:17:11;99499.94;;;4.55;50.76
39267;BME280;24967;51.154;13.812;2023-03-17T04:19:38;99500.31;;;4.62;50.25
39267;BME280;24967;51.154;13.812;2023-03-17T04:22:07;99488.94;;;4.62;50.71
39267;BME280;24967;51.154;13.812;2023-03-17T04:24:33;99486.38;;;4.73;50.20
39267;BME280;24967;51.154;13.812;2023-03-17T04:27:00;99502.31;;;4.82;49.85
39267;BME280;24967;51.154;13.812;2023-03-17T04:29:27;99498.03;;;4.57;49.97
39267;BME280;24967;51.154;13.812;2023-03-17T04:31:54;99501.16;;;4.63;50.27
39267;BME280;24967;51.154;13.812;2023-03-17T04:34:21;99499.63;;;4.71;50.11
39267;BME280;24967;51.154;13.812;2023-03-17T04:36:48;99502.56;;;4.55;50.64
39267;BME280;24967;51.154;13.812;2023-03-17T04:39:16;99503.38;;;4.80;49.89
39267;BME280;24967;51.154;13.812;2023-03-17T04:41:43;99504.66;;;4.63;50.28
39267;BME280;24967;51.154;13.812;2023-03-17T04:44:09;99507.97;;;4.65;49.76
39267;BME280;24967;51.154;13.812;2023-03-17T04:46:36;99507.06;;;4.66;50.69
39267;BME280;24967;51.154;13.812;2023-03-17T04:49:03;99491.94;;;4.57;50.46
39267;BME280;24967;51.154;13.812;2023-03-17T04:51:29;99498.19;;;4.43;50.48
39267;BME280;24967;51.154;13.812;2023-03-17T04:53:56;99486.56;;;4.34;51.29
39267;BME280;24967;51.154;13.812;2023-03-17T04:56:24;99485.66;;;4.47;51.48
39267;BME280;24967;51.154;13.812;2023-03-17T04:58:50;99487.50;;;4.57;51.02
39267;BME280;24967;51.154;13.812;2023-03-17T05:01:17;99479.78;;;4.43;51.32
39267;BME280;24967;51.154;13.812;2023-03-17T05:03:43;99478.22;;;4.41;51.50
39267;BME280;24967;51.154;13.812;2023-03-17T05:06:10;99465.84;;;4.30;51.36
39267;BME280;24967;51.154;13.812;2023-03-17T05:08:37;99472.88;;;4.29;51.78
39267;BME280;24967;51.154;13.812;2023-03-17T05:11:04;99472.19;;;4.39;51.81
39267;BME280;24967;51.154;13.812;2023-03-17T05:13:32;99468.13;;;4.34;52.39
39267;BME280;24967;51.154;13.812;2023-03-17T05:15:58;99460.75;;;4.40;51.93
39267;BME280;24967;51.154;13.812;2023-03-17T05:18:26;99458.34;;;4.36;52.20
39267;BME280;24967;51.154;13.812;2023-03-17T05:20:53;99457.97;;;4.30;51.45
39267;BME280;24967;51.154;13.812;2023-03-17T05:23:20;99457.16;;;4.17;52.10
39267;BME280;24967;51.154;13.812;2023-03-17T05:25:47;99455.88;;;4.22;52.67
39267;BME280;24967;51.154;13.812;2023-03-17T05:28:14;99451.22;;;4.26;51.75
39267;BME280;24967;51.154;13.812;2023-03-17T05:30:42;99453.00;;;4.25;52.26
39267;BME280;24967;51.154;13.812;2023-03-17T05:33:10;99460.91;;;4.25;52.81
39267;BME280;24967;51.154;13.812;2023-03-17T05:35:37;99474.81;;;4.27;51.99
39267;BME280;24967;51.154;13.812;2023-03-17T05:38:05;99476.59;;;4.27;52.48
39267;BME280;24967;51.154;13.812;2023-03-17T05:40:33;99476.19;;;4.20;52.38
39267;BME280;24967;51.154;13.812;2023-03-17T05:42:59;99475.78;;;4.13;53.47
39267;BME280;24967;51.154;13.812;2023-03-17T05:45:26;99467.53;;;4.31;52.45
39267;BME280;24967;51.154;13.812;2023-03-17T05:47:54;99475.69;;;4.15;52.78
39267;BME280;24967;51.154;13.812;2023-03-17T05:50:21;99467.19;;;4.11;52.86
39267;BME280;24967;51.154;13.812;2023-03-17T05:52:47;99464.38;;;4.26;52.62
39267;BME280;24967;51.154;13.812;2023-03-17T05:55:16;99463.31;;;4.04;52.75
39267;BME280;24967;51.154;13.812;2023-03-17T05:57:42;99473.31;;;4.23;53.20
39267;BME280;24967;51.154;13.812;2023-03-17T06:00:10;99479.63;;;4.33;52.60
39267;BME280;24967;51.154;13.812;2023-03-17T06:02:37;99466.56;;;4.32;52.20
39267;BME280;24967;51.154;13.812;2023-03-17T06:05:07;99483.41;;;4.29;52.34
39267;BME280;24967;51.154;13.812;2023-03-17T06:07:34;99485.13;;;4.42;52.74
39267;BME280;24967;51.154;13.812;2023-03-17T06:10:00;99486.91;;;4.54;52.71
39267;BME280;24967;51.154;13.812;2023-03-17T06:12:27;99499.84;;;4.68;52.24
39267;BME280;24967;51.154;13.812;2023-03-17T06:14:54;99491.44;;;4.52;52.61
39267;BME280;24967;51.154;13.812;2023-03-17T06:17:20;99495.94;;;4.50;52.52
39267;BME280;24967;51.154;13.812;2023-03-17T06:19:48;99492.16;;;4.54;52.49
39267;BME280;24967;51.154;13.812;2023-03-17T06:22:15;99479.47;;;4.59;52.32
39267;BME280;24967;51.154;13.812;2023-03-17T06:24:42;99483.31;;;4.55;52.65
39267;BME280;24967;51.154;13.812;2023-03-17T06:27:08;99476.59;;;4.51;53.16
39267;BME280;24967;51.154;13.812;2023-03-17T06:29:37;99480.81;;;4.65;52.75
39267;BME280;24967;51.154;13.812;2023-03-17T06:32:04;99474.63;;;4.77;52.39
39267;BME280;24967;51.154;13.812;2023-03-17T06:34:30;99483.13;;;4.80;52.95
39267;BME280;24967;51.154;13.812;2023-03-17T06:36:57;99491.34;;;5.00;51.92
39267;BME280;24967;51.154;13.812;2023-03-17T06:39:25;99488.59;;;5.01;52.29
39267;BME280;24967;51.154;13.812;2023-03-17T06:41:52;99492.69;;;5.05;51.88
39267;BME280;24967;51.154;13.812;2023-03-17T06:44:19;99492.28;;;4.88;51.78
39267;BME280;24967;51.154;13.812;2023-03-17T06:46:45;99494.44;;;5.05;51.85
39267;BME280;24967;51.154;13.812;2023-03-17T06:49:12;99498.19;;;5.02;51.58
39267;BME280;24967;51.154;13.812;2023-03-17T06:51:39;99504.78;;;5.19;51.54
39267;BME280;24967;51.154;13.812;2023-03-17T06:54:06;99503.50;;;5.25;51.31
39267;BME280;24967;51.154;13.812;2023-03-17T06:56:34;99513.91;;;5.38;50.87
39267;BME280;24967;51.154;13.812;2023-03-17T06:59:00;99517.28;;;5.40;51.28
39267;BME280;24967;51.154;13.812;2023-03-17T07:01:27;99519.31;;;5.36;51.39
39267;BME280;24967;51.154;13.812;2023-03-17T07:03:53;99506.97;;;5.59;51.74
39267;BME280;24967;51.154;13.812;2023-03-17T07:06:20;99520.41;;;5.56;51.42
39267;BME280;24967;51.154;13.812;2023-03-17T07:08:48;99519.06;;;5.50;51.21
39267;BME280;24967;51.154;13.812;2023-03-17T07:11:15;99514.66;;;5.62;51.32
39267;BME280;24967;51.154;13.812;2023-03-17T07:13:43;99522.31;;;5.65;50.97
39267;BME280;24967;51.154;13.812;2023-03-17T07:16:10;99528.34;;;5.67;50.65
39267;BME280;24967;51.154;13.812;2023-03-17T07:18:36;99504.13;;;5.73;50.47
39267;BME280;24967;51.154;13.812;2023-03-17T07:21:03;99500.78;;;5.94;50.24
39267;BME280;24967;51.154;13.812;2023-03-17T07:23:31;99495.34;;;6.07;50.52
39267;BME280;24967;51.154;13.812;2023-03-17T07:25:57;99492.81;;;6.16;50.42
39267;BME280;24967;51.154;13.812;2023-03-17T07:28:24;99512.97;;;6.17;49.89
39267;BME280;24967;51.154;13.812;2023-03-17T07:30:52;99515.19;;;6.45;50.60
39267;BME280;24967;51.154;13.812;2023-03-17T07:33:19;99500.50;;;6.52;48.93
39267;BME280;24967;51.154;13.812;2023-03-17T07:35:46;99484.75;;;6.61;49.65
39267;BME280;24967;51.154;13.812;2023-03-17T07:38:13;99464.69;;;6.59;48.78
39267;BME280;24967;51.154;13.812;2023-03-17T07:40:41;99461.63;;;6.54;49.57
39267;BME280;24967;51.154;13.812;2023-03-17T07:43:07;99466.03;;;6.53;48.77
39267;BME280;24967;51.154;13.812;2023-03-17T07:45:34;99464.19;;;6.65;48.91
39267;BME280;24967;51.154;13.812;2023-03-17T07:48:02;99462.84;;;6.92;48.68
39267;BME280;24967;51.154;13.812;2023-03-17T07:50:29;99460.66;;;6.97;48.31
39267;BME280;24967;51.154;13.812;2023-03-17T07:52:56;99452.16;;;6.72;48.48
39267;BME280;24967;51.154;13.812;2023-03-17T07:55:22;99447.97;;;6.37;48.47
39267;BME280;24967;51.154;13.812;2023-03-17T07:57:49;99444.66;;;6.56;48.36
39267;BME280;24967;51.154;13.812;2023-03-17T08:00:16;99445.38;;;6.58;48.42
39267;BME280;24967;51.154;13.812;2023-03-17T08:02:44;99447.75;;;6.61;48.56
39267;BME280;24967;51.154;13.812;2023-03-17T08:05:12;99446.38;;;6.99;49.10
39267;BME280;24967;51.154;13.812;2023-03-17T08:07:38;99450.81;;;6.78;47.84
39267;BME280;24967;51.154;13.812;2023-03-17T08:10:06;99438.50;;;6.88;47.86
39267;BME280;24967;51.154;13.812;2023-03-17T08:12:33;99448.94;;;6.89;47.99
39267;BME280;24967;51.154;13.812;2023-03-17T08:15:00;99454.88;;;6.82;48.41
39267;BME280;24967;51.154;13.812;2023-03-17T08:17:27;99454.63;;;6.85;48.41
39267;BME280;24967;51.154;13.812;2023-03-17T08:19:55;99442.94;;;7.08;48.83
39267;BME280;24967;51.154;13.812;2023-03-17T08:22:24;99434.00;;;7.30;49.14
39267;BME280;24967;51.154;13.812;2023-03-17T08:24:50;99432.78;;;7.44;48.44
39267;BME280;24967;51.154;13.812;2023-03-17T08:27:18;99440.91;;;7.52;48.37
39267;BME280;24967;51.154;13.812;2023-03-17T08:29:45;99449.28;;;7.57;47.88
39267;BME280;24967;51.154;13.812;2023-03-17T08:32:12;99449.47;;;7.66;47.44
39267;BME280;24967;51.154;13.812;2023-03-17T08:34:39;99430.81;;;7.77;48.27
39267;BME280;24967;51.154;13.812;2023-03-17T08:37:05;99432.00;;;8.03;46.69
39267;BME280;24967;51.154;13.812;2023-03-17T08:39:33;99432.72;;;8.06;46.46
39267;BME280;24967;51.154;13.812;2023-03-17T08:42:00;99418.09;;;8.11;45.78
39267;BME280;24967;51.154;13.812;2023-03-17T08:44:27;99427.25;;;8.17;44.92
39267;BME280;24967;51.154;13.812;2023-03-17T08:46:54;99419.19;;;8.28;45.98
39267;BME280;24967;51.154;13.812;2023-03-17T08:49:22;99422.97;;;8.35;45.63
39267;BME280;24967;51.154;13.812;2023-03-17T08:51:48;99412.09;;;8.29;45.73
39267;BME280;24967;51.154;13.812;2023-03-17T08:54:15;99411.28;;;8.57;46.50
39267;BME280;24967;51.154;13.812;2023-03-17T08:56:43;99420.22;;;8.66;46.04
39267;BME280;24967;51.154;13.812;2023-03-17T08:59:10;99406.66;;;8.59;44.59
39267;BME280;24967;51.154;13.812;2023-03-17T09:01:36;99423.56;;;8.48;45.15
39267;BME280;24967;51.154;13.812;2023-03-17T09:04:04;99409.75;;;8.55;44.70
39267;BME280;24967;51.154;13.812;2023-03-17T09:06:30;99402.91;;;8.71;44.63
39267;BME280;24967;51.154;13.812;2023-03-17T09:08:57;99405.19;;;9.04;44.04
39267;BME280;24967;51.154;13.812;2023-03-17T09:11:25;99402.25;;;9.07;43.85
39267;BME280;24967;51.154;13.812;2023-03-17T09:13:53;99401.97;;;9.10;44.05
39267;BME280;24967;51.154;13.812;2023-03-17T09:16:20;99407.81;;;9.51;44.44
39267;BME280;24967;51.154;13.812;2023-03-17T09:18:48;99417.72;;;9.76;43.55
39267;BME280;24967;51.154;13.812;2023-03-17T09:21:18;99408.38;;;10.00;42.54
39267;BME280;24967;51.154;13.812;2023-03-17T09:23:45;99410.81;;;10.11;41.43
39267;BME280;24967;51.154;13.812;2023-03-17T09:26:12;99404.84;;;10.27;41.62
39267;BME280;24967;51.154;13.812;2023-03-17T09:28:39;99401.72;;;10.14;41.39
39267;BME280;24967;51.154;13.812;2023-03-17T09:31:07;99415.28;;;10.38;42.34
39267;BME280;24967;51.154;13.812;2023-03-17T09:33:35;99414.06;;;10.76;42.03
39267;BME280;24967;51.154;13.812;2023-03-17T09:36:02;99401.53;;;10.87;41.20
39267;BME280;24967;51.154;13.812;2023-03-17T09:38:29;99405.31;;;11.10;41.68
39267;BME280;24967;51.154;13.812;2023-03-17T09:40:59;99398.59;;;11.24;41.14
39267;BME280;24967;51.154;13.812;2023-03-17T09:43:35;99396.63;;;11.34;40.04
39267;BME280;24967;51.154;13.812;2023-03-17T09:46:19;99390.72;;;11.49;39.44
39267;BME280;24967;51.154;13.812;2023-03-17T09:48:58;99387.63;;;11.27;39.64
39267;BME280;24967;51.154;13.812;2023-03-17T09:51:25;99374.28;;;11.53;39.67
39267;BME280;24967;51.154;13.812;2023-03-17T09:53:57;99392.34;;;11.84;40.25
39267;BME280;24967;51.154;13.812;2023-03-17T09:56:26;99388.63;;;12.11;39.77
39267;BME280;24967;51.154;13.812;2023-03-17T09:58:57;99391.97;;;12.46;40.27
39267;BME280;24967;51.154;13.812;2023-03-17T10:01:25;99393.81;;;12.29;39.92
39267;BME280;24967;51.154;13.812;2023-03-17T10:03:52;99394.31;;;12.41;38.77
39267;BME280;24967;51.154;13.812;2023-03-17T10:06:29;99379.94;;;12.25;37.87
39267;BME280;24967;51.154;13.812;2023-03-17T10:09:03;99389.47;;;12.36;37.72
39267;BME280;24967;51.154;13.812;2023-03-17T10:11:38;99397.44;;;12.11;38.40
39267;BME280;24967;51.154;13.812;2023-03-17T10:14:12;99386.28;;;12.16;38.71
39267;BME280;24967;51.154;13.812;2023-03-17T10:16:50;99381.97;;;12.31;37.72
39267;BME280;24967;51.154;13.812;2023-03-17T10:19:23;99388.09;;;12.15;38.52
39267;BME280;24967;51.154;13.812;2023-03-17T10:21:53;99384.16;;;12.44;38.56
39267;BME280;24967;51.154;13.812;2023-03-17T10:24:23;99390.66;;;12.74;38.69
39267;BME280;24967;51.154;13.812;2023-03-17T10:26:51;99376.47;;;12.49;38.15
39267;BME280;24967;51.154;13.812;2023-03-17T10:29:22;99384.78;;;12.71;39.23
39267;BME280;24967;51.154;13.812;2023-03-17T10:31:52;99378.25;;;12.98;38.45
39267;BME280;24967;51.154;13.812;2023-03-17T10:34:20;99373.13;;;12.80;37.53
39267;BME280;24967;51.154;13.812;2023-03-17T10:36:49;99370.66;;;12.54;37.39
39267;BME280;24967;51.154;13.812;2023-03-17T10:39:20;99374.47;;;12.76;38.75
39267;BME280;24967;51.154;13.812;2023-03-17T10:41:53;99364.13;;;12.81;38.46
39267;BME280;24967;51.154;13.812;2023-03-17T10:44:28;99364.75;;;13.07;37.88
39267;BME280;24967;51.154;13.812;2023-03-17T10:46:59;99370.06;;;13.07;36.92
39267;BME280;24967;51.154;13.812;2023-03-17T10:49:31;99358.25;;;13.02;37.23
39267;BME280;24967;51.154;13.812;2023-03-17T10:52:05;99364.56;;;13.01;37.44
39267;BME280;24967;51.154;13.812;2023-03-17T10:54:33;99374.53;;;13.15;37.95
39267;BME280;24967;51.154;13.812;2023-03-17T10:57:04;99368.59;;;13.05;37.77
39267;BME280;24967;51.154;13.812;2023-03-17T10:59:37;99367.91;;;13.11;38.04
39267;BME280;24967;51.154;13.812;2023-03-17T11:02:18;99354.00;;;13.24;37.40
39267;BME280;24967;51.154;13.812;2023-03-17T11:04:45;99350.47;;;13.40;36.55
39267;BME280;24967;51.154;13.812;2023-03-17T11:07:15;99365.78;;;13.54;37.32
39267;BME280;24967;51.154;13.812;2023-03-17T11:09:42;99349.94;;;13.52;37.58
39267;BME280;24967;51.154;13.812;2023-03-17T11:12:21;99355.97;;;13.78;38.44
39267;BME280;24967;51.154;13.812;2023-03-17T11:14:53;99353.38;;;13.61;36.38
39267;BME280;24967;51.154;13.812;2023-03-17T11:17:32;99352.16;;;13.72;36.92
39267;BME280;24967;51.154;13.812;2023-03-17T11:20:14;99341.63;;;13.70;36.98
39267;BME280;24967;51.154;13.812;2023-03-17T11:22:52;99353.56;;;14.14;37.54
39267;BME280;24967;51.154;13.812;2023-03-17T11:25:20;99328.63;;;13.98;37.26
39267;BME280;24967;51.154;13.812;2023-03-17T11:27:51;99343.31;;;14.26;37.43
39267;BME280;24967;51.154;13.812;2023-03-17T11:30:25;99329.91;;;13.80;35.99
39267;BME280;24967;51.154;13.812;2023-03-17T11:32:58;99330.28;;;13.37;36.19
39267;BME280;24967;51.154;13.812;2023-03-17T11:35:37;99342.66;;;13.38;36.18
39267;BME280;24967;51.154;13.812;2023-03-17T11:38:16;99335.31;;;13.24;35.40
39267;BME280;24967;51.154;13.812;2023-03-17T11:40:55;99340.13;;;13.37;36.49
39267;BME280;24967;51.154;13.812;2023-03-17T11:43:32;99345.09;;;13.48;36.00
39267;BME280;24967;51.154;13.812;2023-03-17T11:46:06;99327.84;;;13.90;35.99
39267;BME280;24967;51.154;13.812;2023-03-17T11:48:44;99322.81;;;13.64;35.44
39267;BME280;24967;51.154;13.812;2023-03-17T11:51:18;99317.88;;;13.84;34.69
39267;BME280;24967;51.154;13.812;2023-03-17T11:53:58;99318.84;;;13.60;34.16
39267;BME280;24967;51.154;13.812;2023-03-17T11:56:36;99316.22;;;13.43;35.28
39267;BME280;24967;51.154;13.812;2023-03-17T11:59:05;99313.66;;;13.58;34.96
39267;BME280;24967;51.154;13.812;2023-03-17T12:01:44;99303.78;;;13.90;36.22
39267;BME280;24967;51.154;13.812;2023-03-17T12:04:18;99301.63;;;13.85;35.02
39267;BME280;24967;51.154;13.812;2023-03-17T12:06:51;99297.47;;;13.83;34.58
39267;BME280;24967;51.154;13.812;2023-03-17T12:09:26;99296.84;;;13.81;34.56
39267;BME280;24967;51.154;13.812;2023-03-17T12:11:56;99306.41;;;13.75;35.38
39267;BME280;24967;51.154;13.812;2023-03-17T12:14:27;99302.53;;;13.78;34.82
39267;BME280;24967;51.154;13.812;2023-03-17T12:17:00;99299.94;;;13.92;35.96
39267;BME280;24967;51.154;13.812;2023-03-17T12:19:36;99298.03;;;13.78;35.37
39267;BME280;24967;51.154;13.812;2023-03-17T12:22:07;99282.19;;;14.00;35.44
39267;BME280;24967;51.154;13.812;2023-03-17T12:24:41;99298.06;;;14.16;35.32
39267;BME280;24967;51.154;13.812;2023-03-17T12:27:14;99285.88;;;14.36;36.36
39267;BME280;24967;51.154;13.812;2023-03-17T12:29:43;99284.75;;;14.54;36.38
39267;BME280;24967;51.154;13.812;2023-03-17T12:32:18;99275.69;;;14.55;34.99
39267;BME280;24967;51.154;13.812;2023-03-17T12:34:51;99278.13;;;14.79;35.28
39267;BME280;24967;51.154;13.812;2023-03-17T12:37:18;99279.59;;;14.82;35.61
39267;BME280;24967;51.154;13.812;2023-03-17T12:39:50;99273.03;;;14.55;34.84
39267;BME280;24967;51.154;13.812;2023-03-17T12:42:40;99278.59;;;14.68;35.26
39267;BME280;24967;51.154;13.812;2023-03-17T12:45:27;99273.88;;;15.15;36.28
39267;BME280;24967;51.154;13.812;2023-03-17T12:48:11;99270.50;;;15.27;35.87
39267;BME280;24967;51.154;13.812;2023-03-17T12:51:26;99272.97;;;15.07;34.98
39267;BME280;24967;51.154;13.812;2023-03-17T12:53:57;99265.59;;;14.80;36.61
39267;BME280;24967;51.154;13.812;2023-03-17T12:56:26;99266.22;;;14.82;36.68
39267;BME280;24967;51.154;13.812;2023-03-17T12:58:58;99259.88;;;14.83;36.16
39267;BME280;24967;51.154;13.812;2023-03-17T13:01:30;99271.88;;;14.49;35.03
39267;BME280;24967;51.154;13.812;2023-03-17T13:04:02;99255.50;;;14.67;36.29
39267;BME280;24967;51.154;13.812;2023-03-17T13:06:37;99253.50;;;14.69;36.97